sensor_id;sensor_type;location;lat;lon;timestamp;temperature;humidity
431;DHT22;202;48.764;9.172;2023-04-01T00:00:45;11.00;57.30
431;DHT22;202;48.764;9.172;2023-04-01T00:03:13;11.00;57.50
431;DHT22;202;48.764;9.172;2023-04-01T00:05:43;11.00;57.60
431;DHT22;202;48.764;9.172;2023-04-01T00:08:09;11.10;57.70
431;DHT22;202;48.764;9.172;2023-04-01T00:10:38;11.00;57.70
431;DHT22;202;48.764;9.172;2023-04-01T00:13:05;11.10;58.60
431;DHT22;202;48.764;9.172;2023-04-01T00:15:32;11.10;58.50
431;DHT22;202;48.764;9.172;2023-04-01T00:17:59;11.00;58.80
431;DHT22;202;48.764;9.172;2023-04-01T00:20:27;11.10;57.30
431;DHT22;202;48.764;9.172;2023-04-01T00:22:54;11.10;57.40
431;DHT22;202;48.764;9.172;2023-04-01T00:25:21;11.10;58.10
431;DHT22;202;48.764;9.172;2023-04-01T00:27:50;11.20;58.00
431;DHT22;202;48.764;9.172;2023-04-01T00:30:17;11.10;58.10
431;DHT22;202;48.764;9.172;2023-04-01T00:32:44;11.20;58.40
431;DHT22;202;48.764;9.172;2023-04-01T00:35:11;11.20;56.60
431;DHT22;202;48.764;9.172;2023-04-01T00:37:39;11.10;57.10
431;DHT22;202;48.764;9.172;2023-04-01T00:40:07;11.10;56.90
431;DHT22;202;48.764;9.172;2023-04-01T00:42:34;11.10;57.50
431;DHT22;202;48.764;9.172;2023-04-01T00:45:28;11.10;57.60
431;DHT22;202;48.764;9.172;2023-04-01T00:47:55;11.20;57.50
431;DHT22;202;48.764;9.172;2023-04-01T00:50:25;11.10;57.70
431;DHT22;202;48.764;9.172;2023-04-01T00:52:53;11.10;58.90
431;DHT22;202;48.764;9.172;2023-04-01T00:55:21;11.00;58.50
431;DHT22;202;48.764;9.172;2023-04-01T00:57:50;11.10;59.00
431;DHT22;202;48.764;9.172;2023-04-01T01:00:19;11.10;59.00
431;DHT22;202;48.764;9.172;2023-04-01T01:02:50;11.10;59.00
431;DHT22;202;48.764;9.172;2023-04-01T01:05:18;11.10;59.40
431;DHT22;202;48.764;9.172;2023-04-01T01:07:52;11.10;59.70
431;DHT22;202;48.764;9.172;2023-04-01T01:10:24;11.10;60.10
431;DHT22;202;48.764;9.172;2023-04-01T01:12:57;11.10;61.10
431;DHT22;202;48.764;9.172;2023-04-01T01:15:32;11.00;63.00
431;DHT22;202;48.764;9.172;2023-04-01T01:18:09;11.10;62.60
431;DHT22;202;48.764;9.172;2023-04-01T01:21:06;11.10;62.60
431;DHT22;202;48.764;9.172;2023-04-01T01:24:08;11.10;62.60
431;DHT22;202;48.764;9.172;2023-04-01T01:26:53;11.00;63.70
431;DHT22;202;48.764;9.172;2023-04-01T01:29:55;10.80;63.50
431;DHT22;202;48.764;9.172;2023-04-01T01:32:37;10.80;64.10
431;DHT22;202;48.764;9.172;2023-04-01T01:35:19;10.90;64.10
431;DHT22;202;48.764;9.172;2023-04-01T01:37:50;11.00;64.60
431;DHT22;202;48.764;9.172;2023-04-01T01:40:18;11.10;63.80
431;DHT22;202;48.764;9.172;2023-04-01T01:42:50;11.10;63.80
431;DHT22;202;48.764;9.172;2023-04-01T01:45:31;11.00;64.20
431;DHT22;202;48.764;9.172;2023-04-01T01:47:59;11.00;64.50
431;DHT22;202;48.764;9.172;2023-04-01T01:50:32;10.90;65.30
431;DHT22;202;48.764;9.172;2023-04-01T01:53:02;10.90;65.50
431;DHT22;202;48.764;9.172;2023-04-01T01:55:32;10.90;65.70
431;DHT22;202;48.764;9.172;2023-04-01T01:58:08;10.80;66.90
431;DHT22;202;48.764;9.172;2023-04-01T02:00:37;10.80;67.40
431;DHT22;202;48.764;9.172;2023-04-01T02:03:23;10.80;66.30
431;DHT22;202;48.764;9.172;2023-04-01T02:06:10;10.70;66.80
431;DHT22;202;48.764;9.172;2023-04-01T02:09:07;10.70;66.30
431;DHT22;202;48.764;9.172;2023-04-01T02:11:40;10.80;66.60
431;DHT22;202;48.764;9.172;2023-04-01T02:14:14;10.80;65.20
431;DHT22;202;48.764;9.172;2023-04-01T02:16:53;10.80;65.20
431;DHT22;202;48.764;9.172;2023-04-01T02:19:40;10.60;66.00
431;DHT22;202;48.764;9.172;2023-04-01T02:22:28;10.60;66.30
431;DHT22;202;48.764;9.172;2023-04-01T02:25:09;10.60;65.90
431;DHT22;202;48.764;9.172;2023-04-01T02:27:44;10.60;66.40
431;DHT22;202;48.764;9.172;2023-04-01T02:30:15;10.60;65.90
431;DHT22;202;48.764;9.172;2023-04-01T02:40:11;10.50;66.60
431;DHT22;202;48.764;9.172;2023-04-01T02:42:39;10.50;66.10
431;DHT22;202;48.764;9.172;2023-04-01T02:45:29;10.50;65.80
431;DHT22;202;48.764;9.172;2023-04-01T03:23:25;10.40;63.60
431;DHT22;202;48.764;9.172;2023-04-01T03:26:07;10.40;63.10
431;DHT22;202;48.764;9.172;2023-04-01T03:28:44;10.40;63.20
431;DHT22;202;48.764;9.172;2023-04-01T03:34:12;10.50;62.20
431;DHT22;202;48.764;9.172;2023-04-01T03:36:42;10.40;62.30
431;DHT22;202;48.764;9.172;2023-04-01T03:39:10;10.30;62.20
431;DHT22;202;48.764;9.172;2023-04-01T03:41:37;10.30;63.00
431;DHT22;202;48.764;9.172;2023-04-01T03:44:05;10.40;63.10
431;DHT22;202;48.764;9.172;2023-04-01T03:46:31;10.40;62.00
431;DHT22;202;48.764;9.172;2023-04-01T03:48:59;10.40;63.10
431;DHT22;202;48.764;9.172;2023-04-01T03:51:27;10.50;63.10
431;DHT22;202;48.764;9.172;2023-04-01T03:53:54;10.50;62.00
431;DHT22;202;48.764;9.172;2023-04-01T03:56:22;10.60;60.10
431;DHT22;202;48.764;9.172;2023-04-01T03:58:49;10.60;58.50
431;DHT22;202;48.764;9.172;2023-04-01T04:01:17;10.60;59.30
431;DHT22;202;48.764;9.172;2023-04-01T04:03:46;10.60;57.90
431;DHT22;202;48.764;9.172;2023-04-01T04:06:14;10.60;58.50
431;DHT22;202;48.764;9.172;2023-04-01T04:08:42;10.60;59.60
431;DHT22;202;48.764;9.172;2023-04-01T04:11:09;10.60;59.20
431;DHT22;202;48.764;9.172;2023-04-01T04:13:37;10.60;59.50
431;DHT22;202;48.764;9.172;2023-04-01T04:16:05;10.60;58.50
431;DHT22;202;48.764;9.172;2023-04-01T04:18:32;10.60;57.50
431;DHT22;202;48.764;9.172;2023-04-01T04:20:59;10.50;58.40
431;DHT22;202;48.764;9.172;2023-04-01T04:23:26;10.40;58.40
431;DHT22;202;48.764;9.172;2023-04-01T04:25:55;10.40;59.00
431;DHT22;202;48.764;9.172;2023-04-01T04:28:22;10.40;58.40
431;DHT22;202;48.764;9.172;2023-04-01T04:30:51;10.40;58.40
431;DHT22;202;48.764;9.172;2023-04-01T04:33:18;10.20;58.70
431;DHT22;202;48.764;9.172;2023-04-01T04:35:44;10.00;59.20
431;DHT22;202;48.764;9.172;2023-04-01T04:38:11;10.00;59.80
431;DHT22;202;48.764;9.172;2023-04-01T04:40:39;9.90;61.40
431;DHT22;202;48.764;9.172;2023-04-01T04:43:06;10.00;60.40
431;DHT22;202;48.764;9.172;2023-04-01T04:45:33;10.00;60.50
431;DHT22;202;48.764;9.172;2023-04-01T04:48:02;10.00;59.80
431;DHT22;202;48.764;9.172;2023-04-01T04:50:28;10.00;59.70
431;DHT22;202;48.764;9.172;2023-04-01T04:52:55;10.00;60.80
431;DHT22;202;48.764;9.172;2023-04-01T04:55:22;10.00;60.70
431;DHT22;202;48.764;9.172;2023-04-01T04:57:49;9.80;62.30
431;DHT22;202;48.764;9.172;2023-04-01T05:00:16;9.90;63.20
431;DHT22;202;48.764;9.172;2023-04-01T05:02:43;9.90;63.60
431;DHT22;202;48.764;9.172;2023-04-01T05:05:12;9.90;63.60
431;DHT22;202;48.764;9.172;2023-04-01T05:07:38;9.90;62.70
431;DHT22;202;48.764;9.172;2023-04-01T05:10:06;9.90;63.60
431;DHT22;202;48.764;9.172;2023-04-01T05:12:33;9.90;63.60
431;DHT22;202;48.764;9.172;2023-04-01T05:15:03;9.80;63.60
431;DHT22;202;48.764;9.172;2023-04-01T05:17:30;9.80;63.60
431;DHT22;202;48.764;9.172;2023-04-01T05:19:57;9.80;63.60
431;DHT22;202;48.764;9.172;2023-04-01T05:22:25;9.70;64.60
431;DHT22;202;48.764;9.172;2023-04-01T05:24:52;9.70;64.80
431;DHT22;202;48.764;9.172;2023-04-01T05:27:19;9.80;65.20
431;DHT22;202;48.764;9.172;2023-04-01T05:29:51;9.90;64.50
431;DHT22;202;48.764;9.172;2023-04-01T05:32:21;10.00;62.70
431;DHT22;202;48.764;9.172;2023-04-01T05:34:50;10.10;62.80
431;DHT22;202;48.764;9.172;2023-04-01T05:37:18;10.20;62.90
431;DHT22;202;48.764;9.172;2023-04-01T05:39:46;10.30;61.90
431;DHT22;202;48.764;9.172;2023-04-01T05:42:13;10.30;60.60
431;DHT22;202;48.764;9.172;2023-04-01T05:44:54;10.20;61.40
431;DHT22;202;48.764;9.172;2023-04-01T05:47:21;10.20;61.10
431;DHT22;202;48.764;9.172;2023-04-01T05:49:49;10.20;61.30
431;DHT22;202;48.764;9.172;2023-04-01T05:52:21;10.20;60.60
431;DHT22;202;48.764;9.172;2023-04-01T05:54:51;10.20;60.30
431;DHT22;202;48.764;9.172;2023-04-01T05:57:18;10.30;60.10
431;DHT22;202;48.764;9.172;2023-04-01T05:59:45;10.30;59.80
431;DHT22;202;48.764;9.172;2023-04-01T06:02:18;10.40;59.20
431;DHT22;202;48.764;9.172;2023-04-01T06:04:51;10.40;58.80
431;DHT22;202;48.764;9.172;2023-04-01T06:07:29;10.50;57.70
431;DHT22;202;48.764;9.172;2023-04-01T06:10:13;10.50;58.00
431;DHT22;202;48.764;9.172;2023-04-01T06:12:49;10.50;57.30
431;DHT22;202;48.764;9.172;2023-04-01T06:15:29;10.50;56.60
431;DHT22;202;48.764;9.172;2023-04-01T06:18:25;10.50;56.40
431;DHT22;202;48.764;9.172;2023-04-01T06:21:03;10.50;56.60
431;DHT22;202;48.764;9.172;2023-04-01T06:23:45;10.70;55.90
431;DHT22;202;48.764;9.172;2023-04-01T06:26:27;10.70;55.10
431;DHT22;202;48.764;9.172;2023-04-01T06:32:06;10.80;55.40
431;DHT22;202;48.764;9.172;2023-04-01T06:34:55;10.80;55.10
431;DHT22;202;48.764;9.172;2023-04-01T06:37:45;10.90;54.40
431;DHT22;202;48.764;9.172;2023-04-01T06:40:28;11.00;54.20
431;DHT22;202;48.764;9.172;2023-04-01T06:43:07;11.00;54.10
431;DHT22;202;48.764;9.172;2023-04-01T06:45:41;11.00;55.40
431;DHT22;202;48.764;9.172;2023-04-01T06:48:35;11.00;54.10
431;DHT22;202;48.764;9.172;2023-04-01T06:51:12;10.90;55.20
431;DHT22;202;48.764;9.172;2023-04-01T06:53:49;11.00;54.60
431;DHT22;202;48.764;9.172;2023-04-01T06:56:23;11.10;54.20
431;DHT22;202;48.764;9.172;2023-04-01T06:58:55;11.10;54.20
431;DHT22;202;48.764;9.172;2023-04-01T07:01:27;11.20;54.40
431;DHT22;202;48.764;9.172;2023-04-01T07:03:58;11.20;54.30
431;DHT22;202;48.764;9.172;2023-04-01T07:06:28;11.20;54.10
431;DHT22;202;48.764;9.172;2023-04-01T07:09:00;11.30;54.40
431;DHT22;202;48.764;9.172;2023-04-01T07:11:31;11.30;54.40
431;DHT22;202;48.764;9.172;2023-04-01T07:14:03;11.30;53.80
431;DHT22;202;48.764;9.172;2023-04-01T07:16:34;11.30;54.40
431;DHT22;202;48.764;9.172;2023-04-01T07:19:06;11.30;54.40
431;DHT22;202;48.764;9.172;2023-04-01T07:21:39;11.40;54.50
431;DHT22;202;48.764;9.172;2023-04-01T07:24:12;11.40;54.50
431;DHT22;202;48.764;9.172;2023-04-01T07:26:41;11.40;54.20
431;DHT22;202;48.764;9.172;2023-04-01T07:29:13;11.30;54.90
431;DHT22;202;48.764;9.172;2023-04-01T07:31:54;11.30;55.90
431;DHT22;202;48.764;9.172;2023-04-01T07:34:25;11.20;56.80
431;DHT22;202;48.764;9.172;2023-04-01T07:36:58;11.20;55.60
431;DHT22;202;48.764;9.172;2023-04-01T07:39:35;11.20;55.30
431;DHT22;202;48.764;9.172;2023-04-01T07:42:11;11.20;55.00
431;DHT22;202;48.764;9.172;2023-04-01T07:44:49;11.10;55.20
431;DHT22;202;48.764;9.172;2023-04-01T07:47:29;11.20;55.50
431;DHT22;202;48.764;9.172;2023-04-01T07:50:06;11.20;55.40
431;DHT22;202;48.764;9.172;2023-04-01T07:52:41;11.20;54.40
431;DHT22;202;48.764;9.172;2023-04-01T07:55:15;11.30;55.70
431;DHT22;202;48.764;9.172;2023-04-01T07:57:48;11.30;55.10
431;DHT22;202;48.764;9.172;2023-04-01T08:00:21;11.30;54.40
431;DHT22;202;48.764;9.172;2023-04-01T08:05:47;11.40;54.50
431;DHT22;202;48.764;9.172;2023-04-01T08:08:21;11.40;54.50
431;DHT22;202;48.764;9.172;2023-04-01T08:11:01;11.40;55.50
431;DHT22;202;48.764;9.172;2023-04-01T08:13:46;11.40;55.40
431;DHT22;202;48.764;9.172;2023-04-01T08:16:26;11.50;54.70
431;DHT22;202;48.764;9.172;2023-04-01T08:19:09;11.60;54.70
431;DHT22;202;48.764;9.172;2023-04-01T08:22:16;11.60;54.70
431;DHT22;202;48.764;9.172;2023-04-01T08:25:27;11.70;54.80
431;DHT22;202;48.764;9.172;2023-04-01T08:28:20;11.80;54.90
431;DHT22;202;48.764;9.172;2023-04-01T08:31:05;11.80;54.90
431;DHT22;202;48.764;9.172;2023-04-01T08:33:35;11.90;55.00
431;DHT22;202;48.764;9.172;2023-04-01T08:36:07;11.80;54.90
431;DHT22;202;48.764;9.172;2023-04-01T08:38:39;11.80;55.90
431;DHT22;202;48.764;9.172;2023-04-01T08:41:28;11.80;55.80
431;DHT22;202;48.764;9.172;2023-04-01T08:44:20;11.60;57.30
431;DHT22;202;48.764;9.172;2023-04-01T08:47:20;11.60;57.70
431;DHT22;202;48.764;9.172;2023-04-01T08:52:58;11.20;59.80
431;DHT22;202;48.764;9.172;2023-04-01T08:55:47;11.20;61.30
431;DHT22;202;48.764;9.172;2023-04-01T08:58:54;11.00;63.10
431;DHT22;202;48.764;9.172;2023-04-01T09:07:35;11.00;63.70
431;DHT22;202;48.764;9.172;2023-04-01T09:10:24;11.10;62.20
431;DHT22;202;48.764;9.172;2023-04-01T09:13:04;11.10;62.90
431;DHT22;202;48.764;9.172;2023-04-01T09:15:47;11.10;61.60
431;DHT22;202;48.764;9.172;2023-04-01T09:18:38;11.20;61.90
431;DHT22;202;48.764;9.172;2023-04-01T09:21:25;11.20;63.90
431;DHT22;202;48.764;9.172;2023-04-01T09:27:03;11.40;59.80
431;DHT22;202;48.764;9.172;2023-04-01T09:29:51;11.50;59.30
431;DHT22;202;48.764;9.172;2023-04-01T09:32:39;11.60;59.60
431;DHT22;202;48.764;9.172;2023-04-01T09:38:30;12.00;58.90
431;DHT22;202;48.764;9.172;2023-04-01T09:41:32;12.00;56.20
431;DHT22;202;48.764;9.172;2023-04-01T09:44:33;11.80;56.20
431;DHT22;202;48.764;9.172;2023-04-01T09:47:51;11.90;55.00
431;DHT22;202;48.764;9.172;2023-04-01T09:50:48;11.70;55.40
431;DHT22;202;48.764;9.172;2023-04-01T09:53:42;11.70;56.50
431;DHT22;202;48.764;9.172;2023-04-01T10:06:42;11.70;56.10
431;DHT22;202;48.764;9.172;2023-04-01T10:10:10;11.70;54.80
431;DHT22;202;48.764;9.172;2023-04-01T10:19:16;11.70;53.00
431;DHT22;202;48.764;9.172;2023-04-01T10:22:32;11.60;53.00
431;DHT22;202;48.764;9.172;2023-04-01T10:35:18;12.00;51.60
431;DHT22;202;48.764;9.172;2023-04-01T10:38:20;12.20;50.80
431;DHT22;202;48.764;9.172;2023-04-01T10:47:36;12.30;50.70
431;DHT22;202;48.764;9.172;2023-04-01T10:50:39;12.50;50.70
431;DHT22;202;48.764;9.172;2023-04-01T10:56:54;12.40;49.00
431;DHT22;202;48.764;9.172;2023-04-01T11:03:14;12.30;49.80
431;DHT22;202;48.764;9.172;2023-04-01T11:06:19;12.30;50.00
431;DHT22;202;48.764;9.172;2023-04-01T11:15:48;12.40;49.70
431;DHT22;202;48.764;9.172;2023-04-01T11:18:56;12.30;48.70
431;DHT22;202;48.764;9.172;2023-04-01T11:32:23;13.00;46.30
431;DHT22;202;48.764;9.172;2023-04-01T11:35:19;13.10;46.40
431;DHT22;202;48.764;9.172;2023-04-01T11:41:43;13.20;46.50
431;DHT22;202;48.764;9.172;2023-04-01T11:45:32;13.30;46.60
431;DHT22;202;48.764;9.172;2023-04-01T11:48:52;13.20;45.60
431;DHT22;202;48.764;9.172;2023-04-01T11:55:22;13.00;46.30
431;DHT22;202;48.764;9.172;2023-04-01T11:58:44;13.00;46.30
431;DHT22;202;48.764;9.172;2023-04-01T12:14:30;12.80;47.40
431;DHT22;202;48.764;9.172;2023-04-01T12:20:52;12.80;47.70
431;DHT22;202;48.764;9.172;2023-04-01T12:24:19;12.90;48.30
431;DHT22;202;48.764;9.172;2023-04-01T12:27:22;12.80;48.70
431;DHT22;202;48.764;9.172;2023-04-01T12:37:02;12.80;50.00
431;DHT22;202;48.764;9.172;2023-04-01T12:43:49;12.90;48.30
431;DHT22;202;48.764;9.172;2023-04-01T12:46:32;13.00;46.70
431;DHT22;202;48.764;9.172;2023-04-01T12:54:37;13.10;46.40
431;DHT22;202;48.764;9.172;2023-04-01T12:56:09;13.30;45.90
431;DHT22;202;48.764;9.172;2023-04-01T12:59:34;13.30;45.00
431;DHT22;202;48.764;9.172;2023-04-01T13:02:57;13.40;45.30
431;DHT22;202;48.764;9.172;2023-04-01T13:13:36;13.20;44.10
431;DHT22;202;48.764;9.172;2023-04-01T13:16:21;13.20;44.10
431;DHT22;202;48.764;9.172;2023-04-01T13:26:05;13.20;44.50
431;DHT22;202;48.764;9.172;2023-04-01T13:28:59;13.30;44.40
431;DHT22;202;48.764;9.172;2023-04-01T13:32:25;13.20;44.90
431;DHT22;202;48.764;9.172;2023-04-01T13:39:10;13.20;44.50
431;DHT22;202;48.764;9.172;2023-04-01T13:45:22;13.00;44.90
431;DHT22;202;48.764;9.172;2023-04-01T13:49:21;13.10;45.00
431;DHT22;202;48.764;9.172;2023-04-01T13:52:38;13.00;44.30
431;DHT22;202;48.764;9.172;2023-04-01T13:59:34;13.10;45.20
431;DHT22;202;48.764;9.172;2023-04-01T14:09:44;13.20;44.40
431;DHT22;202;48.764;9.172;2023-04-01T14:12:51;13.30;43.30
431;DHT22;202;48.764;9.172;2023-04-01T14:19:56;13.10;45.20
431;DHT22;202;48.764;9.172;2023-04-01T14:34:12;13.10;46.90
431;DHT22;202;48.764;9.172;2023-04-01T14:36:55;12.90;46.30
431;DHT22;202;48.764;9.172;2023-04-01T14:50:16;12.60;48.80
431;DHT22;202;48.764;9.172;2023-04-01T14:53:29;12.70;48.50
431;DHT22;202;48.764;9.172;2023-04-01T14:57:10;12.80;47.50
431;DHT22;202;48.764;9.172;2023-04-01T15:00:14;12.70;47.50
431;DHT22;202;48.764;9.172;2023-04-01T15:03:21;12.90;48.40
431;DHT22;202;48.764;9.172;2023-04-01T15:12:30;13.00;46.30
431;DHT22;202;48.764;9.172;2023-04-01T15:19:43;13.00;46.30
431;DHT22;202;48.764;9.172;2023-04-01T15:22:33;13.10;46.40
431;DHT22;202;48.764;9.172;2023-04-01T15:26:02;13.10;46.40
431;DHT22;202;48.764;9.172;2023-04-01T15:29:06;13.00;
431;DHT22;202;48.764;9.172;2023-04-01T15:31:59;13.00;46.30
431;DHT22;202;48.764;9.172;2023-04-01T15:38:08;13.00;46.30
431;DHT22;202;48.764;9.172;2023-04-01T15:41:22;13.10;45.90
431;DHT22;202;48.764;9.172;2023-04-01T15:47:44;13.00;46.30
431;DHT22;202;48.764;9.172;2023-04-01T15:53:11;13.00;46.30
431;DHT22;202;48.764;9.172;2023-04-01T15:55:58;13.00;46.70
431;DHT22;202;48.764;9.172;2023-04-01T16:05:05;13.10;47.30
431;DHT22;202;48.764;9.172;2023-04-01T16:11:51;13.00;46.20
431;DHT22;202;48.764;9.172;2023-04-01T16:15:19;12.90;46.50
431;DHT22;202;48.764;9.172;2023-04-01T16:25:37;13.00;45.60
431;DHT22;202;48.764;9.172;2023-04-01T16:33:28;12.90;46.30
431;DHT22;202;48.764;9.172;2023-04-01T16:35:56;12.90;45.60
431;DHT22;202;48.764;9.172;2023-04-01T16:45:39;12.90;46.00
431;DHT22;202;48.764;9.172;2023-04-01T16:48:34;12.90;46.30
431;DHT22;202;48.764;9.172;2023-04-01T16:56:16;12.70;46.10
431;DHT22;202;48.764;9.172;2023-04-01T16:58:38;12.80;46.80
431;DHT22;202;48.764;9.172;2023-04-01T17:05:20;12.80;47.20
431;DHT22;202;48.764;9.172;2023-04-01T17:08:46;12.70;47.30
431;DHT22;202;48.764;9.172;2023-04-01T17:19:30;12.90;47.40
431;DHT22;202;48.764;9.172;2023-04-01T17:28:49;12.80;47.10
431;DHT22;202;48.764;9.172;2023-04-01T17:39:53;12.80;47.30
431;DHT22;202;48.764;9.172;2023-04-01T17:49:56;12.80;47.50
431;DHT22;202;48.764;9.172;2023-04-01T17:53:26;12.90;47.50
431;DHT22;202;48.764;9.172;2023-04-01T18:20:50;12.80;53.60
431;DHT22;202;48.764;9.172;2023-04-01T18:24:13;12.70;54.80
431;DHT22;202;48.764;9.172;2023-04-01T18:27:45;12.70;55.00
431;DHT22;202;48.764;9.172;2023-04-01T18:30:34;12.50;54.60
431;DHT22;202;48.764;9.172;2023-04-01T18:40:25;12.10;58.60
431;DHT22;202;48.764;9.172;2023-04-01T18:43:17;11.90;58.50
431;DHT22;202;48.764;9.172;2023-04-01T18:45:51;11.70;56.70
431;DHT22;202;48.764;9.172;2023-04-01T18:48:40;11.80;56.30
431;DHT22;202;48.764;9.172;2023-04-01T18:51:14;11.60;55.80
431;DHT22;202;48.764;9.172;2023-04-01T18:53:55;11.70;54.80
431;DHT22;202;48.764;9.172;2023-04-01T18:56:28;11.70;54.00
431;DHT22;202;48.764;9.172;2023-04-01T18:59:02;11.70;54.10
431;DHT22;202;48.764;9.172;2023-04-01T19:01:37;11.70;53.10
431;DHT22;202;48.764;9.172;2023-04-01T19:04:14;11.60;53.20
431;DHT22;202;48.764;9.172;2023-04-01T19:06:48;11.60;52.90
431;DHT22;202;48.764;9.172;2023-04-01T19:09:23;11.70;53.50
431;DHT22;202;48.764;9.172;2023-04-01T19:12:08;11.60;53.30
431;DHT22;202;48.764;9.172;2023-04-01T19:14:51;11.60;53.40
431;DHT22;202;48.764;9.172;2023-04-01T19:17:27;11.60;52.10
431;DHT22;202;48.764;9.172;2023-04-01T19:20:03;11.70;52.80
431;DHT22;202;48.764;9.172;2023-04-01T19:22:46;11.60;51.70
431;DHT22;202;48.764;9.172;2023-04-01T19:25:26;11.60;51.80
431;DHT22;202;48.764;9.172;2023-04-01T19:28:03;11.60;51.70
431;DHT22;202;48.764;9.172;2023-04-01T19:30:46;11.40;52.80
431;DHT22;202;48.764;9.172;2023-04-01T19:39:09;11.30;52.80
431;DHT22;202;48.764;9.172;2023-04-01T20:38:50;11.10;54.20
431;DHT22;202;48.764;9.172;2023-04-01T21:23:51;11.20;55.10
431;DHT22;202;48.764;9.172;2023-04-01T21:37:52;11.20;55.60
431;DHT22;202;48.764;9.172;2023-04-01T21:41:09;11.30;55.50
431;DHT22;202;48.764;9.172;2023-04-01T22:02:21;11.00;54.20
431;DHT22;202;48.764;9.172;2023-04-01T22:05:21;10.90;54.20
431;DHT22;202;48.764;9.172;2023-04-01T22:11:49;11.10;54.00
431;DHT22;202;48.764;9.172;2023-04-01T22:15:08;11.10;52.70
431;DHT22;202;48.764;9.172;2023-04-01T22:21:34;10.80;53.50
431;DHT22;202;48.764;9.172;2023-04-01T22:24:54;10.90;53.70
431;DHT22;202;48.764;9.172;2023-04-01T22:31:25;11.00;52.90
431;DHT22;202;48.764;9.172;2023-04-01T22:34:31;11.10;51.90
431;DHT22;202;48.764;9.172;2023-04-01T22:37:23;11.10;51.90
431;DHT22;202;48.764;9.172;2023-04-01T22:40:14;11.20;51.30
431;DHT22;202;48.764;9.172;2023-04-01T22:42:52;11.00;51.40
431;DHT22;202;48.764;9.172;2023-04-01T22:45:50;11.00;52.00
431;DHT22;202;48.764;9.172;2023-04-01T22:48:32;10.70;52.90
431;DHT22;202;48.764;9.172;2023-04-01T22:51:12;10.50;53.70
431;DHT22;202;48.764;9.172;2023-04-01T22:54:21;10.40;54.30
431;DHT22;202;48.764;9.172;2023-04-01T23:00:39;10.60;53.80
431;DHT22;202;48.764;9.172;2023-04-01T23:10:50;10.90;54.10
431;DHT22;202;48.764;9.172;2023-04-01T23:24:27;10.70;53.90
431;DHT22;202;48.764;9.172;2023-04-01T23:31:09;10.80;54.00
431;DHT22;202;48.764;9.172;2023-04-01T23:58:16;10.70;53.90
